aviador You're here:

CYMM Decoded Metar

FORT MCMURRAY in AB, CANADA
Report Time2017-09-23 18:00:00
UTC Time2017-09-23 18:24:05
Flight Rules vfr VFR
Wind190° at 09 kt
W.Decomp.*RWY 25: 2.0 kt HW 8.8 kt LCW
W.Rank190° ranks 33
Current wind is above 190° avg. (5.0)
Visibility9999 m
Phenomena:N/A
Clouds:Overcast 040 Hf
Expected CloudBase > 2,800 ft AGL from Temp-Dew spread
Ceiling4,000 ft
Temp08°C (ISA -5)
Dew Point01°C (62% RH)
AAT3.0°C
QNH1019 hPa
Density Alt551 ft
Elevation1,211 ft
Report Wrong Elevation
Raw Report
CYMM 231800Z AUTO 19009KT 9SM OVC040 08/01 A3010 RMK SLP210=

Extra information for CYMM:More info

Metar Taf Metar & Taf Last 4 Metars F.Rules Stats Wind Profile Meteogram Temp Stats Airport Information Weather charts Add Link Nearby VenuesMetar ALERT Operation Metar Decoded Social comments